Impacts METAR Board
IDs:

KMEM - Memphis Intl, TN, US

Updated at: 1100 UTC 09 Jul 2020
Potential Impact None Slight Moderate High
Time 08/23Z 09/00Z 09/01Z 09/02Z 09/03Z 09/04Z 09/05Z 09/06Z 09/07Z 09/08Z 09/09Z 09/10Z 09/11Z
Temp88 85 83 81 80 79 78 77 77 76 76 77 77
Dewpt72 72 72 73 73 73 73 74 74 74 74 74 74
Altim29.88 29.89 29.88 29.89 29.91 29.91 29.90 29.89 29.89 29.89 29.89 29.91 29.91
VIS10 10 10 10 10 10 10 10 10 10 10 10 10
CIG-- -- -- -- -- -- -- -- -- -- 70 70 80
CoverSCTSCTFEWFEWCLRCLRCLRCLRCLRFEWBKNBKNBKN
FltCatVFRVFRVFRVFRVFRVFRVFRVFRVFRVFRVFRVFRVFR
WX--------------------------
WDir220200190190180190240210150190190220220
WSpd6 7 4 6 5 4 4 3 3 4 4 3 3
WGst-- -- -- -- -- -- -- -- -- -- -- -- --
Raw hourly METARs
KMEM 082254Z 22006KT 10SM FEW040 SCT060 SCT250 31/22 A2988 RMK AO2 SLP115 T03110222 $
KMEM 082354Z 20007KT 10SM FEW037 SCT055 29/22 A2989 RMK AO2 SLP116 T02940222 10317 20289 55002 $
KMEM 090054Z 19004KT 10SM FEW037 FEW055 28/22 A2988 RMK AO2 SLP114 T02830222 $
KMEM 090154Z 19006KT 10SM FEW037 27/23 A2989 RMK AO2 SLP118 T02720228 $
KMEM 090254Z 18005KT 10SM CLR 27/23 A2991 RMK AO2 SLP125 T02670228 53009 $
KMEM 090354Z 19004KT 10SM CLR 26/23 A2991 RMK AO2 SLP125 T02610228 $
KMEM 090454Z 24004KT 10SM CLR 26/23 A2990 RMK AO2 SLP122 T02560228 $
KMEM 090554Z 21003KT 10SM CLR 25/23 A2989 RMK AO2 SLP118 T02500233 10294 20250 403170233 58007 $
KMEM 090654Z 15003KT 10SM CLR 25/23 A2989 RMK AO2 SLP118 T02500233 $
KMEM 090754Z 19004KT 10SM FEW150 FEW250 24/23 A2989 RMK AO2 SLP118 T02440233 $
KMEM 090854Z 19004KT 10SM BKN070 24/23 A2989 RMK AO2 SLP117 T02440233 58001 $
KMEM 090954Z 22003KT 10SM BKN070 25/23 A2991 RMK AO2 SLP124 T02500233 $
KMEM 091054Z 22003KT 10SM BKN080 25/23 A2991 RMK AO2 SLP124 T02500233 $



Page loaded:  11:42 UTC  |   04:42 AM Pacific  |   05:42 AM Mountain  |   06:42 AM Central  |   07:42 AM Eastern

 

ADVISORIES

FORECASTS

FORECASTS

OBSERVATIONS

USER TOOLS

ABOUT US